Tuesday, August 21, 2018, 9:53 AM EDT
Back to Local

KBTV, Burlington International

Location: South Burlington, VT, United States Lat: 44.467
Local Time: 9:53 AM EDT (13:53 GMT) Lon: -73.15
Time Zone: US/Eastern Elev: 334 ft

Show me the last for .
Show Decoded

2018-08-21 08:54 METAR KBTV 211254Z 16008KT 10SM FEW050 SCT120 BKN200 21/14 A3009 RMK AO2 SLP189
                 T02110139 =
2018-08-21 07:54 METAR KBTV 211154Z 16008KT 10SM FEW050 SCT200 BKN250 20/14 A3011 RMK AO2 SLP194
                 T02000139 10200 20161 50000 =
2018-08-21 06:54 METAR KBTV 211054Z 13005KT 10SM FEW050 FEW100 SCT200 18/14 A3011 RMK AO2 SLP195
                 T01780139 =
2018-08-21 05:54 METAR KBTV 210954Z 13005KT 10SM FEW050 SCT200 16/13 A3011 RMK AO2 SLP195
                 T01610133 =
2018-08-21 04:54 METAR KBTV 210854Z 13003KT 10SM CLR 17/13 A3011 RMK AO2 SLP194 T01670133 55005 =
2018-08-21 03:54 METAR KBTV 210754Z 00000KT 10SM CLR 17/13 A3010 RMK AO2 SLP193 T01720133 =
2018-08-21 02:54 METAR KBTV 210654Z 10004KT 10SM CLR 17/14 A3010 RMK AO2 SLP192 T01720139 =
2018-08-21 00:54 METAR KBTV 210454Z 00000KT 10SM CLR 18/13 A3013 RMK AO2 SLP201 T01830133
                 402830161 =
2018-08-20 23:54 METAR KBTV 210354Z 00000KT 10SM FEW060 19/13 A3013 RMK AO2 SLP202 LAST T01940133
                 =
2018-08-20 22:54 METAR KBTV 210254Z 13003KT 10SM FEW060 19/14 A3013 RMK AO2 SLP203 T01940139
                 51007 =
2018-08-20 21:54 METAR KBTV 210154Z 13004KT 10SM FEW060 SCT200 21/14 A3013 RMK AO2 SLP202
                 T02110139 =
2018-08-20 20:54 METAR KBTV 210054Z 15004KT 10SM SCT060 SCT200 23/14 A3012 RMK AO2 SLP198
                 T02280144 =
2018-08-20 19:54 METAR KBTV 202354Z 18003KT 10SM SCT060 SCT200 25/14 A3011 RMK AO2 SLP196
                 T02500139 10283 20250 53003 =
2018-08-20 18:54 METAR KBTV 202254Z 26004KT 10SM SCT060 27/14 A3010 RMK AO2 SLP192 T02670139 =
2018-08-20 17:54 METAR KBTV 202154Z 24007KT 10SM SCT060 SCT200 27/14 A3009 RMK AO2 SLP189
                 T02720144 =
2018-08-20 16:54 METAR KBTV 202054Z 27007KT 10SM FEW060 27/14 A3010 RMK AO2 SLP193 T02720144
                 56012 =
2018-08-20 15:54 METAR KBTV 201954Z VRB06KT 10SM FEW060 28/14 A3011 RMK AO2 SLP195 T02780139 =
2018-08-20 14:54 METAR KBTV 201854Z 27006KT 10SM SCT055 28/14 A3013 RMK AO2 SLP200 T02780139 =
2018-08-20 13:54 METAR KBTV 201754Z 32006KT 10SM SCT048 27/13 A3014 RMK AO2 SLP205 T02670133
                 10272 20200 56017 =
2018-08-20 12:54 METAR KBTV 201654Z 19004KT 10SM SCT050 27/13 A3015 RMK AO2 SLP210 T02670133 =
2018-08-20 11:54 METAR KBTV 201554Z COR 22005KT 10SM FEW050 FEW200 25/13 A3017 RMK AO2 SLP217
                 T02500133 =
2018-08-20 10:54 METAR KBTV 201454Z 19007KT 10SM FEW045 FEW200 24/13 A3019 RMK AO2 SLP222
                 T02440133 50003 =
2018-08-20 09:54 METAR KBTV 201354Z 22007KT 10SM FEW110 SCT200 23/13 A3020 RMK AO2 SLP226
                 T02330133 =

Support USWX by starting your Amazon purchase here.